Accueil
METAR-TAF:

METAR-TAF

Aéroports :

Aéroport de Nîmes–Alès–Camargue–Cévennes, Garons

Nîmes, France

latitude: 43-45N, longitude: 004-25E, altitude: 94 m

Observation

Le bulletin a été fait il y a 26 minutes, à 13:30 UTC
Vent 6 kt de direction variable
Température 32°C
Humidité 34%
Pression 1019 hPa
Visibilité 10 km ou plus
pas de nuages en-dessous de 1500 mètres et pas de cumulonimbus.

METAR: LFTW 221330Z AUTO VRB06KT CAVOK 32/14 Q1019 NOSIG

Heure: 15:56 (13:56 UTC)

Prévision

Le bulletin a été fait il y a 5 heures et 56 minutes, à 08:00 UTC
Prévision valable du 22 à 09 UTC au 23 à 09 UTC
Vent 10 kt de nord/nord-est
Visibilité 10 km ou plus
pas de nuages en-dessous de 1500 mètres et pas de cumulonimbus.
Temporairement
du 22 à 18 UTC au 22 à 21 UTC
Vent 15 kt de nord avec des rafales jusqu'à 25 kt

TAF: LFTW 220800Z 2209/2309 03010KT CAVOK TEMPO 2218/2221 36015G25KT

Observations et prévisions météorologiques de plus de 4000 aéroports (messages METAR et TAF).

Les stations disponibles sont représentées par des disques jaunes et rouges sur la carte.

Passer la souris dessus pour voir le nom de la station.

Cliquer dessus pour voir les observations et prévisions météorologiques.

Pour changer de carte: cliquez sur les boutons verts avec une croix noire pour zoomer, sur le bouton vert avec un tiret pour effectuer un zoom arrière, ou sur les flèches vertes pour les cartes adjacentes.


METAR-TAF: